﻿<?xml version="1.0" encoding="utf-8"?><gpx creator="Garmin Desktop App" version="1.1" xsi:schemaLocation="http://www.topografix.com/GPX/1/1 http://www.topografix.com/GPX/1/1/gpx.xsd http://www.garmin.com/xmlschemas/WaypointExtension/v1 http://www8.garmin.com/xmlschemas/WaypointExtensionv1.xsd http://www.garmin.com/xmlschemas/TrackPointExtension/v1 http://www.garmin.com/xmlschemas/TrackPointExtensionv1.xsd http://www.garmin.com/xmlschemas/GpxExtensions/v3 http://www8.garmin.com/xmlschemas/GpxExtensionsv3.xsd http://www.garmin.com/xmlschemas/ActivityExtension/v1 http://www8.garmin.com/xmlschemas/ActivityExtensionv1.xsd http://www.garmin.com/xmlschemas/AdventuresExtensions/v1 http://www8.garmin.com/xmlschemas/AdventuresExtensionv1.xsd http://www.garmin.com/xmlschemas/PressureExtension/v1 http://www.garmin.com/xmlschemas/PressureExtensionv1.xsd http://www.garmin.com/xmlschemas/TripExtensions/v1 http://www.garmin.com/xmlschemas/TripExtensionsv1.xsd http://www.garmin.com/xmlschemas/TripMetaDataExtensions/v1 http://www.garmin.com/xmlschemas/TripMetaDataExtensionsv1.xsd http://www.garmin.com/xmlschemas/ViaPointTransportationModeExtensions/v1 http://www.garmin.com/xmlschemas/ViaPointTransportationModeExtensionsv1.xsd http://www.garmin.com/xmlschemas/CreationTimeExtension/v1 http://www.garmin.com/xmlschemas/CreationTimeExtensionsv1.xsd http://www.garmin.com/xmlschemas/AccelerationExtension/v1 http://www.garmin.com/xmlschemas/AccelerationExtensionv1.xsd http://www.garmin.com/xmlschemas/PowerExtension/v1 http://www.garmin.com/xmlschemas/PowerExtensionv1.xsd http://www.garmin.com/xmlschemas/VideoExtension/v1 http://www.garmin.com/xmlschemas/VideoExtensionv1.xsd" xmlns="http://www.topografix.com/GPX/1/1" xmlns:xsi="http://www.w3.org/2001/XMLSchema-instance" xmlns:wptx1="http://www.garmin.com/xmlschemas/WaypointExtension/v1" xmlns:gpxtrx="http://www.garmin.com/xmlschemas/GpxExtensions/v3" xmlns:gpxtpx="http://www.garmin.com/xmlschemas/TrackPointExtension/v1" xmlns:gpxx="http://www.garmin.com/xmlschemas/GpxExtensions/v3" xmlns:trp="http://www.garmin.com/xmlschemas/TripExtensions/v1" xmlns:adv="http://www.garmin.com/xmlschemas/AdventuresExtensions/v1" xmlns:prs="http://www.garmin.com/xmlschemas/PressureExtension/v1" xmlns:tmd="http://www.garmin.com/xmlschemas/TripMetaDataExtensions/v1" xmlns:vptm="http://www.garmin.com/xmlschemas/ViaPointTransportationModeExtensions/v1" xmlns:ctx="http://www.garmin.com/xmlschemas/CreationTimeExtension/v1" xmlns:gpxacc="http://www.garmin.com/xmlschemas/AccelerationExtension/v1" xmlns:gpxpx="http://www.garmin.com/xmlschemas/PowerExtension/v1" xmlns:vidx1="http://www.garmin.com/xmlschemas/VideoExtension/v1">

  <metadata>
    <link href="http://www.garmin.com">
      <text>Garmin International</text>
    </link>
    <time>2024-11-03T15:17:58Z</time>
    <bounds maxlat="45.914482651278377" maxlon="8.487696954980493" minlat="45.907857678830624" minlon="8.473014961928129" />
  </metadata>

  <trk>
    <name>ferrata picasass2024-11-03</name>
    <extensions>
      <gpxx:TrackExtension>
        <gpxx:DisplayColor>Magenta</gpxx:DisplayColor>
      </gpxx:TrackExtension>
    </extensions>
    <trkseg>
      <trkpt lat="45.911837825551629" lon="8.487274507060647">
        <ele>344.13</ele>
        <time>2024-11-03T07:37:48Z</time>
      </trkpt>
      <trkpt lat="45.911600450053811" lon="8.486788272857666">
        <ele>351.5</ele>
        <time>2024-11-03T07:38:43Z</time>
      </trkpt>
      <trkpt lat="45.91118210926652" lon="8.48727467469871">
        <ele>358.33999999999997</ele>
        <time>2024-11-03T07:39:41Z</time>
      </trkpt>
      <trkpt lat="45.91086108237505" lon="8.487196890637279">
        <ele>365.42000000000002</ele>
        <time>2024-11-03T07:40:36Z</time>
      </trkpt>
      <trkpt lat="45.910517675802112" lon="8.487503249198198">
        <ele>372.97000000000003</ele>
        <time>2024-11-03T07:41:33Z</time>
      </trkpt>
      <trkpt lat="45.910170916467905" lon="8.487056661397219">
        <ele>380.86000000000001</ele>
        <time>2024-11-03T07:42:38Z</time>
      </trkpt>
      <trkpt lat="45.909708989784122" lon="8.487442480400205">
        <ele>386.80000000000001</ele>
        <time>2024-11-03T07:43:35Z</time>
      </trkpt>
      <trkpt lat="45.909515284001827" lon="8.487310549244285">
        <ele>395.72000000000003</ele>
        <time>2024-11-03T07:44:46Z</time>
      </trkpt>
      <trkpt lat="45.909577729180455" lon="8.486662292852998">
        <ele>406.66000000000003</ele>
        <time>2024-11-03T07:46:02Z</time>
      </trkpt>
      <trkpt lat="45.909568257629871" lon="8.485995596274734">
        <ele>417.81</ele>
        <time>2024-11-03T07:47:15Z</time>
      </trkpt>
      <trkpt lat="45.909558031708002" lon="8.485341807827354">
        <ele>429.74000000000001</ele>
        <time>2024-11-03T07:48:33Z</time>
      </trkpt>
      <trkpt lat="45.90930531732738" lon="8.48484618589282">
        <ele>439.63999999999999</ele>
        <time>2024-11-03T07:49:45Z</time>
      </trkpt>
      <trkpt lat="45.909108594059944" lon="8.484218465164304">
        <ele>449</ele>
        <time>2024-11-03T07:50:50Z</time>
      </trkpt>
      <trkpt lat="45.909045143052936" lon="8.483606334775686">
        <ele>458.97000000000003</ele>
        <time>2024-11-03T07:51:58Z</time>
      </trkpt>
      <trkpt lat="45.909399194642901" lon="8.483328139409423">
        <ele>469.44999999999999</ele>
        <time>2024-11-03T07:53:12Z</time>
      </trkpt>
      <trkpt lat="45.909519055858254" lon="8.483123704791069">
        <ele>469.63999999999999</ele>
        <time>2024-11-03T07:55:55Z</time>
      </trkpt>
      <trkpt lat="45.90969717130065" lon="8.482698323205113">
        <ele>473.20999999999998</ele>
        <time>2024-11-03T07:58:05Z</time>
      </trkpt>
      <trkpt lat="45.909924320876598" lon="8.482108823955059">
        <ele>481.60000000000002</ele>
        <time>2024-11-03T07:59:15Z</time>
      </trkpt>
      <trkpt lat="45.910243419930339" lon="8.481632899492979">
        <ele>489.38</ele>
        <time>2024-11-03T08:00:22Z</time>
      </trkpt>
      <trkpt lat="45.910707609727979" lon="8.481292342767119">
        <ele>499.56999999999999</ele>
        <time>2024-11-03T08:01:55Z</time>
      </trkpt>
      <trkpt lat="45.911098876968026" lon="8.480818932875991">
        <ele>506.50999999999999</ele>
        <time>2024-11-03T08:03:09Z</time>
      </trkpt>
      <trkpt lat="45.911342706531286" lon="8.480246365070343">
        <ele>515.59000000000003</ele>
        <time>2024-11-03T08:04:24Z</time>
      </trkpt>
      <trkpt lat="45.911361314356327" lon="8.479622835293412">
        <ele>530.12</ele>
        <time>2024-11-03T08:05:57Z</time>
      </trkpt>
      <trkpt lat="45.911661302670836" lon="8.47939015366137">
        <ele>541.27999999999997</ele>
        <time>2024-11-03T08:07:23Z</time>
      </trkpt>
      <trkpt lat="45.9119912981987" lon="8.478982876986265">
        <ele>553.98000000000002</ele>
        <time>2024-11-03T08:08:49Z</time>
      </trkpt>
      <trkpt lat="45.912380469962955" lon="8.478981954976916">
        <ele>553.94000000000005</ele>
        <time>2024-11-03T08:10:25Z</time>
      </trkpt>
      <trkpt lat="45.912741646170616" lon="8.478816412389278">
        <ele>565.50999999999999</ele>
        <time>2024-11-03T08:12:47Z</time>
      </trkpt>
      <trkpt lat="45.912746842950583" lon="8.478795541450381">
        <ele>562.11000000000001</ele>
        <time>2024-11-03T08:19:03Z</time>
      </trkpt>
      <trkpt lat="45.912749860435724" lon="8.478844743221998">
        <ele>559.42999999999995</ele>
        <time>2024-11-03T08:25:39Z</time>
      </trkpt>
      <trkpt lat="45.912747764959931" lon="8.478768970817328">
        <ele>559.73000000000002</ele>
        <time>2024-11-03T08:28:46Z</time>
      </trkpt>
      <trkpt lat="45.912651373073459" lon="8.478730581700802">
        <ele>575.92999999999995</ele>
        <time>2024-11-03T08:38:26Z</time>
      </trkpt>
      <trkpt lat="45.912657240405679" lon="8.478485997766256">
        <ele>592.86000000000001</ele>
        <time>2024-11-03T08:44:05Z</time>
      </trkpt>
      <trkpt lat="45.91261968947947" lon="8.47831953316927">
        <ele>603.22000000000003</ele>
        <time>2024-11-03T08:47:15Z</time>
      </trkpt>
      <trkpt lat="45.91270568780601" lon="8.47806011326611">
        <ele>627.38999999999999</ele>
        <time>2024-11-03T08:54:26Z</time>
      </trkpt>
      <trkpt lat="45.912746423855424" lon="8.477982329204679">
        <ele>635.63999999999999</ele>
        <time>2024-11-03T09:01:50Z</time>
      </trkpt>
      <trkpt lat="45.91286645270884" lon="8.477780492976308">
        <ele>643.13</ele>
        <time>2024-11-03T09:05:12Z</time>
      </trkpt>
      <trkpt lat="45.912823034450412" lon="8.477878477424383">
        <ele>656.38</ele>
        <time>2024-11-03T09:09:26Z</time>
      </trkpt>
      <trkpt lat="45.912785399705172" lon="8.477813098579645">
        <ele>667.67999999999995</ele>
        <time>2024-11-03T09:12:46Z</time>
      </trkpt>
      <trkpt lat="45.912910709157586" lon="8.477536831051111">
        <ele>694.51999999999998</ele>
        <time>2024-11-03T09:19:34Z</time>
      </trkpt>
      <trkpt lat="45.913053704425693" lon="8.477433817461133">
        <ele>717.24000000000001</ele>
        <time>2024-11-03T09:25:55Z</time>
      </trkpt>
      <trkpt lat="45.913235256448388" lon="8.477300964295864">
        <ele>729.29999999999995</ele>
        <time>2024-11-03T09:28:59Z</time>
      </trkpt>
      <trkpt lat="45.913392417132854" lon="8.476999467238784">
        <ele>737.25</ele>
        <time>2024-11-03T09:42:24Z</time>
      </trkpt>
      <trkpt lat="45.913341790437698" lon="8.47691765986383">
        <ele>746.37</ele>
        <time>2024-11-03T09:44:52Z</time>
      </trkpt>
      <trkpt lat="45.913421250879765" lon="8.476817077025771">
        <ele>755.26999999999998</ele>
        <time>2024-11-03T09:47:04Z</time>
      </trkpt>
      <trkpt lat="45.913645550608635" lon="8.476617587730289">
        <ele>767.85000000000002</ele>
        <time>2024-11-03T09:48:45Z</time>
      </trkpt>
      <trkpt lat="45.913605317473412" lon="8.476175526157022">
        <ele>789.12</ele>
        <time>2024-11-03T09:53:00Z</time>
      </trkpt>
      <trkpt lat="45.913670528680086" lon="8.475757017731667">
        <ele>815.69000000000005</ele>
        <time>2024-11-03T09:58:27Z</time>
      </trkpt>
      <trkpt lat="45.913596851751208" lon="8.47539559006691">
        <ele>829.74000000000001</ele>
        <time>2024-11-03T10:11:24Z</time>
      </trkpt>
      <trkpt lat="45.913813440129161" lon="8.475239267572761">
        <ele>841.51999999999998</ele>
        <time>2024-11-03T10:25:23Z</time>
      </trkpt>
      <trkpt lat="45.914144106209278" lon="8.475138936191797">
        <ele>860.40999999999997</ele>
        <time>2024-11-03T10:28:21Z</time>
      </trkpt>
      <trkpt lat="45.914482651278377" lon="8.475014297291637">
        <ele>866.38</ele>
        <time>2024-11-03T10:30:11Z</time>
      </trkpt>
      <trkpt lat="45.914379050955176" lon="8.474980853497982">
        <ele>866.41999999999996</ele>
        <time>2024-11-03T11:59:31Z</time>
      </trkpt>
      <trkpt lat="45.914167910814285" lon="8.474528314545751">
        <ele>851.94000000000005</ele>
        <time>2024-11-03T12:00:56Z</time>
      </trkpt>
      <trkpt lat="45.913914022967219" lon="8.473922051489353">
        <ele>842.84000000000003</ele>
        <time>2024-11-03T12:02:00Z</time>
      </trkpt>
      <trkpt lat="45.913585787639022" lon="8.473481079563499">
        <ele>830.79999999999995</ele>
        <time>2024-11-03T12:04:32Z</time>
      </trkpt>
      <trkpt lat="45.913240453228354" lon="8.473014961928129">
        <ele>826.71000000000004</ele>
        <time>2024-11-03T12:05:42Z</time>
      </trkpt>
      <trkpt lat="45.912824291735888" lon="8.473532376810908">
        <ele>816.09000000000003</ele>
        <time>2024-11-03T12:06:37Z</time>
      </trkpt>
      <trkpt lat="45.912454398348927" lon="8.473997656255961">
        <ele>801.65999999999997</ele>
        <time>2024-11-03T12:07:41Z</time>
      </trkpt>
      <trkpt lat="45.912024658173323" lon="8.474396048113704">
        <ele>789.60000000000002</ele>
        <time>2024-11-03T12:08:37Z</time>
      </trkpt>
      <trkpt lat="45.911612268537283" lon="8.474726714193821">
        <ele>775.75</ele>
        <time>2024-11-03T12:09:52Z</time>
      </trkpt>
      <trkpt lat="45.911186970770359" lon="8.475140444934368">
        <ele>760.39999999999998</ele>
        <time>2024-11-03T12:11:09Z</time>
      </trkpt>
      <trkpt lat="45.910881031304598" lon="8.475612010806799">
        <ele>747.48000000000002</ele>
        <time>2024-11-03T12:13:09Z</time>
      </trkpt>
      <trkpt lat="45.910535361617804" lon="8.475553169846535">
        <ele>731.85000000000002</ele>
        <time>2024-11-03T12:16:30Z</time>
      </trkpt>
      <trkpt lat="45.910154990851879" lon="8.475503884255886">
        <ele>725.88</ele>
        <time>2024-11-03T12:18:00Z</time>
      </trkpt>
      <trkpt lat="45.90974947437644" lon="8.475812589749694">
        <ele>712.04999999999995</ele>
        <time>2024-11-03T12:19:21Z</time>
      </trkpt>
      <trkpt lat="45.909398859366775" lon="8.476241994649172">
        <ele>701.47000000000003</ele>
        <time>2024-11-03T12:20:36Z</time>
      </trkpt>
      <trkpt lat="45.909065762534738" lon="8.476850017905235">
        <ele>684.13999999999999</ele>
        <time>2024-11-03T12:22:01Z</time>
      </trkpt>
      <trkpt lat="45.908671310171485" lon="8.477311944589019">
        <ele>670.73000000000002</ele>
        <time>2024-11-03T12:23:22Z</time>
      </trkpt>
      <trkpt lat="45.908453715965152" lon="8.477953830733895">
        <ele>657.24000000000001</ele>
        <time>2024-11-03T12:25:13Z</time>
      </trkpt>
      <trkpt lat="45.908268559724092" lon="8.478369070217013">
        <ele>638.66999999999996</ele>
        <time>2024-11-03T12:27:06Z</time>
      </trkpt>
      <trkpt lat="45.907951053231955" lon="8.478861674666405">
        <ele>622.79999999999995</ele>
        <time>2024-11-03T12:28:37Z</time>
      </trkpt>
      <trkpt lat="45.907857678830624" lon="8.479639431461692">
        <ele>605.45000000000005</ele>
        <time>2024-11-03T12:30:14Z</time>
      </trkpt>
      <trkpt lat="45.907937306910753" lon="8.480247789993882">
        <ele>586.71000000000004</ele>
        <time>2024-11-03T12:31:59Z</time>
      </trkpt>
      <trkpt lat="45.908149788156152" lon="8.480740813538432">
        <ele>567.45000000000005</ele>
        <time>2024-11-03T12:33:54Z</time>
      </trkpt>
      <trkpt lat="45.908145597204566" lon="8.481196872889996">
        <ele>551.67999999999995</ele>
        <time>2024-11-03T12:35:56Z</time>
      </trkpt>
      <trkpt lat="45.908188680186868" lon="8.481715964153409">
        <ele>536.02999999999997</ele>
        <time>2024-11-03T12:37:32Z</time>
      </trkpt>
      <trkpt lat="45.908609535545111" lon="8.482035314664245">
        <ele>520.37</ele>
        <time>2024-11-03T12:39:16Z</time>
      </trkpt>
      <trkpt lat="45.908628646284342" lon="8.482400011271238">
        <ele>503.11000000000001</ele>
        <time>2024-11-03T12:41:13Z</time>
      </trkpt>
      <trkpt lat="45.908430498093367" lon="8.483108030632138">
        <ele>487.23000000000002</ele>
        <time>2024-11-03T12:42:59Z</time>
      </trkpt>
      <trkpt lat="45.908758984878659" lon="8.483392596244812">
        <ele>474.04000000000002</ele>
        <time>2024-11-03T12:44:27Z</time>
      </trkpt>
      <trkpt lat="45.909224599599838" lon="8.48346627317369">
        <ele>466.95999999999998</ele>
        <time>2024-11-03T12:45:24Z</time>
      </trkpt>
      <trkpt lat="45.909399446099997" lon="8.483308106660843">
        <ele>465.76999999999998</ele>
        <time>2024-11-03T12:47:30Z</time>
      </trkpt>
      <trkpt lat="45.909382598474622" lon="8.483319003134966">
        <ele>463.85000000000002</ele>
        <time>2024-11-03T12:52:18Z</time>
      </trkpt>
      <trkpt lat="45.909231472760439" lon="8.483566185459495">
        <ele>456.79000000000002</ele>
        <time>2024-11-03T12:54:28Z</time>
      </trkpt>
      <trkpt lat="45.909050842747092" lon="8.483970277011395">
        <ele>444.75999999999999</ele>
        <time>2024-11-03T12:55:33Z</time>
      </trkpt>
      <trkpt lat="45.909183025360107" lon="8.484693132340908">
        <ele>432.44999999999999</ele>
        <time>2024-11-03T12:56:34Z</time>
      </trkpt>
      <trkpt lat="45.909481840208173" lon="8.485291851684451">
        <ele>421.10000000000002</ele>
        <time>2024-11-03T12:57:30Z</time>
      </trkpt>
      <trkpt lat="45.909523917362094" lon="8.485997775569558">
        <ele>407.13999999999999</ele>
        <time>2024-11-03T12:58:37Z</time>
      </trkpt>
      <trkpt lat="45.909527437761426" lon="8.486757846549153">
        <ele>392.31</ele>
        <time>2024-11-03T12:59:38Z</time>
      </trkpt>
      <trkpt lat="45.909369271248579" lon="8.487466285005212">
        <ele>381.61000000000001</ele>
        <time>2024-11-03T13:00:41Z</time>
      </trkpt>
      <trkpt lat="45.909723490476608" lon="8.487547840923071">
        <ele>371.18000000000001</ele>
        <time>2024-11-03T13:02:15Z</time>
      </trkpt>
      <trkpt lat="45.910167815163732" lon="8.487261766567826">
        <ele>361.68000000000001</ele>
        <time>2024-11-03T13:03:14Z</time>
      </trkpt>
      <trkpt lat="45.910613983869553" lon="8.487522695213556">
        <ele>352.16000000000003</ele>
        <time>2024-11-03T13:04:03Z</time>
      </trkpt>
      <trkpt lat="45.910941548645496" lon="8.487454885616899">
        <ele>343.48000000000002</ele>
        <time>2024-11-03T13:04:55Z</time>
      </trkpt>
      <trkpt lat="45.911315130069852" lon="8.487114161252976">
        <ele>335.23000000000002</ele>
        <time>2024-11-03T13:05:41Z</time>
      </trkpt>
      <trkpt lat="45.911582680419087" lon="8.487169900909066">
        <ele>327.06</ele>
        <time>2024-11-03T13:07:27Z</time>
      </trkpt>
      <trkpt lat="45.911767333745956" lon="8.487696954980493">
        <ele>317.39999999999998</ele>
        <time>2024-11-03T13:08:10Z</time>
      </trkpt>
    </trkseg>
  </trk>

</gpx>